sensor_id;sensor_type;location;lat;lon;timestamp;P1;durP1;ratioP1;P2;durP2;ratioP2
14056;SDS011;7103;54.300;10.180;2023-05-07T00:01:34;0.10;;;0.10;;
14056;SDS011;7103;54.300;10.180;2023-05-07T00:04:02;0.10;;;0.10;;
14056;SDS011;7103;54.300;10.180;2023-05-07T00:06:29;0.10;;;0.10;;
14056;SDS011;7103;54.300;10.180;2023-05-07T00:08:56;0.10;;;0.10;;
14056;SDS011;7103;54.300;10.180;2023-05-07T00:11:25;0.10;;;0.10;;
14056;SDS011;7103;54.300;10.180;2023-05-07T00:13:53;0.10;;;0.10;;
14056;SDS011;7103;54.300;10.180;2023-05-07T00:16:20;0.10;;;0.10;;
14056;SDS011;7103;54.300;10.180;2023-05-07T00:18:47;0.10;;;0.10;;
14056;SDS011;7103;54.300;10.180;2023-05-07T00:21:14;0.10;;;0.10;;
14056;SDS011;7103;54.300;10.180;2023-05-07T00:23:41;0.10;;;0.10;;
14056;SDS011;7103;54.300;10.180;2023-05-07T00:26:08;0.10;;;0.10;;
14056;SDS011;7103;54.300;10.180;2023-05-07T00:28:35;0.10;;;0.10;;
14056;SDS011;7103;54.300;10.180;2023-05-07T00:31:02;0.17;;;0.17;;
14056;SDS011;7103;54.300;10.180;2023-05-07T00:33:29;0.10;;;0.10;;
14056;SDS011;7103;54.300;10.180;2023-05-07T00:35:56;0.17;;;0.17;;
14056;SDS011;7103;54.300;10.180;2023-05-07T00:38:23;0.10;;;0.10;;
14056;SDS011;7103;54.300;10.180;2023-05-07T00:40:50;0.13;;;0.13;;
14056;SDS011;7103;54.300;10.180;2023-05-07T00:43:17;0.10;;;0.10;;
14056;SDS011;7103;54.300;10.180;2023-05-07T00:45:44;0.10;;;0.10;;
14056;SDS011;7103;54.300;10.180;2023-05-07T00:48:11;0.10;;;0.10;;
14056;SDS011;7103;54.300;10.180;2023-05-07T00:50:40;0.10;;;0.10;;
14056;SDS011;7103;54.300;10.180;2023-05-07T00:53:07;0.20;;;0.20;;
14056;SDS011;7103;54.300;10.180;2023-05-07T00:55:35;0.10;;;0.10;;
14056;SDS011;7103;54.300;10.180;2023-05-07T00:58:03;0.10;;;0.10;;
14056;SDS011;7103;54.300;10.180;2023-05-07T01:00:30;0.10;;;0.10;;
14056;SDS011;7103;54.300;10.180;2023-05-07T01:02:57;0.10;;;0.10;;
14056;SDS011;7103;54.300;10.180;2023-05-07T01:05:25;0.20;;;0.20;;
14056;SDS011;7103;54.300;10.180;2023-05-07T01:07:54;0.10;;;0.10;;
14056;SDS011;7103;54.300;10.180;2023-05-07T01:10:22;0.10;;;0.10;;
14056;SDS011;7103;54.300;10.180;2023-05-07T01:12:50;0.10;;;0.10;;
14056;SDS011;7103;54.300;10.180;2023-05-07T01:15:18;0.10;;;0.10;;
14056;SDS011;7103;54.300;10.180;2023-05-07T01:17:45;0.10;;;0.10;;
14056;SDS011;7103;54.300;10.180;2023-05-07T01:20:12;0.10;;;0.10;;
14056;SDS011;7103;54.300;10.180;2023-05-07T01:22:40;0.13;;;0.13;;
14056;SDS011;7103;54.300;10.180;2023-05-07T01:25:09;0.10;;;0.10;;
14056;SDS011;7103;54.300;10.180;2023-05-07T01:27:36;0.10;;;0.10;;
14056;SDS011;7103;54.300;10.180;2023-05-07T01:30:04;0.20;;;0.20;;
14056;SDS011;7103;54.300;10.180;2023-05-07T01:32:42;0.10;;;0.10;;
14056;SDS011;7103;54.300;10.180;2023-05-07T01:35:11;0.10;;;0.10;;
14056;SDS011;7103;54.300;10.180;2023-05-07T01:37:40;0.20;;;0.20;;
14056;SDS011;7103;54.300;10.180;2023-05-07T01:40:07;0.10;;;0.10;;
14056;SDS011;7103;54.300;10.180;2023-05-07T01:42:36;0.10;;;0.10;;
14056;SDS011;7103;54.300;10.180;2023-05-07T01:45:03;0.10;;;0.10;;
14056;SDS011;7103;54.300;10.180;2023-05-07T01:47:30;0.10;;;0.10;;
14056;SDS011;7103;54.300;10.180;2023-05-07T01:49:58;0.10;;;0.10;;
14056;SDS011;7103;54.300;10.180;2023-05-07T01:52:25;0.10;;;0.10;;
14056;SDS011;7103;54.300;10.180;2023-05-07T01:58:53;0.10;;;0.10;;
14056;SDS011;7103;54.300;10.180;2023-05-07T02:01:20;0.10;;;0.10;;
14056;SDS011;7103;54.300;10.180;2023-05-07T02:03:48;0.10;;;0.10;;
14056;SDS011;7103;54.300;10.180;2023-05-07T02:06:15;0.10;;;0.10;;
14056;SDS011;7103;54.300;10.180;2023-05-07T02:08:42;0.10;;;0.10;;
14056;SDS011;7103;54.300;10.180;2023-05-07T02:11:09;0.10;;;0.10;;
14056;SDS011;7103;54.300;10.180;2023-05-07T02:13:36;0.10;;;0.10;;
14056;SDS011;7103;54.300;10.180;2023-05-07T02:16:03;0.10;;;0.10;;
14056;SDS011;7103;54.300;10.180;2023-05-07T02:18:30;0.20;;;0.20;;
14056;SDS011;7103;54.300;10.180;2023-05-07T02:20:58;0.20;;;0.20;;
14056;SDS011;7103;54.300;10.180;2023-05-07T02:23:25;0.20;;;0.20;;
14056;SDS011;7103;54.300;10.180;2023-05-07T02:25:51;0.10;;;0.10;;
14056;SDS011;7103;54.300;10.180;2023-05-07T02:28:18;0.20;;;0.20;;
14056;SDS011;7103;54.300;10.180;2023-05-07T02:30:45;0.20;;;0.20;;
14056;SDS011;7103;54.300;10.180;2023-05-07T02:33:12;0.20;;;0.20;;
14056;SDS011;7103;54.300;10.180;2023-05-07T02:35:40;0.20;;;0.20;;
14056;SDS011;7103;54.300;10.180;2023-05-07T02:38:07;0.10;;;0.10;;
14056;SDS011;7103;54.300;10.180;2023-05-07T02:40:36;0.20;;;0.20;;
14056;SDS011;7103;54.300;10.180;2023-05-07T02:43:06;0.20;;;0.20;;
14056;SDS011;7103;54.300;10.180;2023-05-07T02:45:33;0.20;;;0.20;;
14056;SDS011;7103;54.300;10.180;2023-05-07T02:48:00;0.20;;;0.20;;
14056;SDS011;7103;54.300;10.180;2023-05-07T02:50:27;0.20;;;0.20;;
14056;SDS011;7103;54.300;10.180;2023-05-07T02:52:54;0.20;;;0.20;;
14056;SDS011;7103;54.300;10.180;2023-05-07T02:55:21;0.13;;;0.13;;
14056;SDS011;7103;54.300;10.180;2023-05-07T02:57:48;0.20;;;0.20;;
14056;SDS011;7103;54.300;10.180;2023-05-07T03:00:16;0.20;;;0.20;;
14056;SDS011;7103;54.300;10.180;2023-05-07T03:02:44;0.20;;;0.20;;
14056;SDS011;7103;54.300;10.180;2023-05-07T03:05:12;0.20;;;0.20;;
14056;SDS011;7103;54.300;10.180;2023-05-07T03:07:39;0.20;;;0.20;;
14056;SDS011;7103;54.300;10.180;2023-05-07T03:10:10;0.20;;;0.20;;
14056;SDS011;7103;54.300;10.180;2023-05-07T03:12:37;0.20;;;0.20;;
14056;SDS011;7103;54.300;10.180;2023-05-07T03:15:04;0.20;;;0.20;;
14056;SDS011;7103;54.300;10.180;2023-05-07T03:17:32;0.10;;;0.10;;
14056;SDS011;7103;54.300;10.180;2023-05-07T03:19:59;0.20;;;0.20;;
14056;SDS011;7103;54.300;10.180;2023-05-07T03:22:26;0.20;;;0.20;;
14056;SDS011;7103;54.300;10.180;2023-05-07T03:24:53;0.20;;;0.20;;
14056;SDS011;7103;54.300;10.180;2023-05-07T03:27:20;0.20;;;0.20;;
14056;SDS011;7103;54.300;10.180;2023-05-07T03:29:47;0.20;;;0.20;;
14056;SDS011;7103;54.300;10.180;2023-05-07T03:32:14;0.20;;;0.20;;
14056;SDS011;7103;54.300;10.180;2023-05-07T03:34:41;0.20;;;0.20;;
14056;SDS011;7103;54.300;10.180;2023-05-07T03:37:07;0.23;;;0.23;;
14056;SDS011;7103;54.300;10.180;2023-05-07T03:39:34;0.20;;;0.20;;
14056;SDS011;7103;54.300;10.180;2023-05-07T03:42:01;0.20;;;0.20;;
14056;SDS011;7103;54.300;10.180;2023-05-07T03:44:29;0.20;;;0.20;;
14056;SDS011;7103;54.300;10.180;2023-05-07T03:46:56;0.20;;;0.20;;
14056;SDS011;7103;54.300;10.180;2023-05-07T03:49:22;0.20;;;0.20;;
14056;SDS011;7103;54.300;10.180;2023-05-07T03:51:49;0.20;;;0.20;;
14056;SDS011;7103;54.300;10.180;2023-05-07T03:54:16;0.20;;;0.20;;
14056;SDS011;7103;54.300;10.180;2023-05-07T03:56:43;0.30;;;0.30;;
14056;SDS011;7103;54.300;10.180;2023-05-07T03:59:10;0.20;;;0.20;;
14056;SDS011;7103;54.300;10.180;2023-05-07T04:01:38;0.20;;;0.20;;
14056;SDS011;7103;54.300;10.180;2023-05-07T04:04:05;0.20;;;0.20;;
14056;SDS011;7103;54.300;10.180;2023-05-07T04:06:32;0.20;;;0.20;;
14056;SDS011;7103;54.300;10.180;2023-05-07T04:08:59;0.20;;;0.20;;
14056;SDS011;7103;54.300;10.180;2023-05-07T04:11:26;0.20;;;0.20;;
14056;SDS011;7103;54.300;10.180;2023-05-07T04:13:53;0.20;;;0.20;;
14056;SDS011;7103;54.300;10.180;2023-05-07T04:16:20;0.20;;;0.20;;
14056;SDS011;7103;54.300;10.180;2023-05-07T04:18:47;0.20;;;0.20;;
14056;SDS011;7103;54.300;10.180;2023-05-07T04:21:15;0.20;;;0.20;;
14056;SDS011;7103;54.300;10.180;2023-05-07T04:23:42;0.20;;;0.20;;
14056;SDS011;7103;54.300;10.180;2023-05-07T04:26:09;0.20;;;0.20;;
14056;SDS011;7103;54.300;10.180;2023-05-07T04:28:39;0.20;;;0.20;;
14056;SDS011;7103;54.300;10.180;2023-05-07T04:31:06;0.20;;;0.20;;
14056;SDS011;7103;54.300;10.180;2023-05-07T04:33:34;0.20;;;0.20;;
14056;SDS011;7103;54.300;10.180;2023-05-07T04:36:01;0.20;;;0.20;;
14056;SDS011;7103;54.300;10.180;2023-05-07T04:38:30;0.20;;;0.20;;
14056;SDS011;7103;54.300;10.180;2023-05-07T04:41:03;0.20;;;0.20;;
14056;SDS011;7103;54.300;10.180;2023-05-07T04:43:33;0.20;;;0.20;;
14056;SDS011;7103;54.300;10.180;2023-05-07T04:46:00;0.20;;;0.20;;
14056;SDS011;7103;54.300;10.180;2023-05-07T04:48:27;0.20;;;0.20;;
14056;SDS011;7103;54.300;10.180;2023-05-07T04:50:55;0.20;;;0.20;;
14056;SDS011;7103;54.300;10.180;2023-05-07T04:53:22;0.20;;;0.20;;
14056;SDS011;7103;54.300;10.180;2023-05-07T04:55:54;0.23;;;0.23;;
14056;SDS011;7103;54.300;10.180;2023-05-07T04:58:22;0.20;;;0.20;;
14056;SDS011;7103;54.300;10.180;2023-05-07T05:00:49;0.20;;;0.20;;
14056;SDS011;7103;54.300;10.180;2023-05-07T05:03:16;0.20;;;0.20;;
14056;SDS011;7103;54.300;10.180;2023-05-07T05:05:43;0.20;;;0.20;;
14056;SDS011;7103;54.300;10.180;2023-05-07T05:08:11;0.20;;;0.20;;
14056;SDS011;7103;54.300;10.180;2023-05-07T05:10:38;0.20;;;0.20;;
14056;SDS011;7103;54.300;10.180;2023-05-07T05:13:05;0.20;;;0.20;;
14056;SDS011;7103;54.300;10.180;2023-05-07T05:15:31;0.20;;;0.20;;
14056;SDS011;7103;54.300;10.180;2023-05-07T05:17:59;0.20;;;0.20;;
14056;SDS011;7103;54.300;10.180;2023-05-07T05:20:26;0.20;;;0.20;;
14056;SDS011;7103;54.300;10.180;2023-05-07T05:22:53;0.20;;;0.20;;
14056;SDS011;7103;54.300;10.180;2023-05-07T05:25:20;0.20;;;0.20;;
14056;SDS011;7103;54.300;10.180;2023-05-07T05:27:47;0.30;;;0.30;;
14056;SDS011;7103;54.300;10.180;2023-05-07T05:30:13;0.20;;;0.20;;
14056;SDS011;7103;54.300;10.180;2023-05-07T05:32:40;0.27;;;0.27;;
14056;SDS011;7103;54.300;10.180;2023-05-07T05:35:07;0.20;;;0.20;;
14056;SDS011;7103;54.300;10.180;2023-05-07T05:37:34;0.20;;;0.20;;
14056;SDS011;7103;54.300;10.180;2023-05-07T05:40:01;0.20;;;0.20;;
14056;SDS011;7103;54.300;10.180;2023-05-07T05:42:28;0.13;;;0.13;;
14056;SDS011;7103;54.300;10.180;2023-05-07T05:44:55;0.20;;;0.20;;
14056;SDS011;7103;54.300;10.180;2023-05-07T05:47:22;0.20;;;0.20;;
14056;SDS011;7103;54.300;10.180;2023-05-07T05:49:49;0.20;;;0.20;;
14056;SDS011;7103;54.300;10.180;2023-05-07T05:52:16;0.20;;;0.20;;
14056;SDS011;7103;54.300;10.180;2023-05-07T05:54:43;0.20;;;0.20;;
14056;SDS011;7103;54.300;10.180;2023-05-07T05:57:10;0.20;;;0.20;;
14056;SDS011;7103;54.300;10.180;2023-05-07T05:59:37;0.20;;;0.20;;
14056;SDS011;7103;54.300;10.180;2023-05-07T06:02:04;0.20;;;0.20;;
14056;SDS011;7103;54.300;10.180;2023-05-07T06:04:32;0.20;;;0.20;;
14056;SDS011;7103;54.300;10.180;2023-05-07T06:06:59;0.20;;;0.20;;
14056;SDS011;7103;54.300;10.180;2023-05-07T06:09:26;0.20;;;0.20;;
14056;SDS011;7103;54.300;10.180;2023-05-07T06:11:53;0.20;;;0.20;;
14056;SDS011;7103;54.300;10.180;2023-05-07T06:14:20;0.20;;;0.20;;
14056;SDS011;7103;54.300;10.180;2023-05-07T06:16:47;0.30;;;0.30;;
14056;SDS011;7103;54.300;10.180;2023-05-07T06:19:14;0.20;;;0.20;;
14056;SDS011;7103;54.300;10.180;2023-05-07T06:21:41;0.20;;;0.20;;
14056;SDS011;7103;54.300;10.180;2023-05-07T06:24:08;0.20;;;0.20;;
14056;SDS011;7103;54.300;10.180;2023-05-07T06:26:35;0.20;;;0.20;;
14056;SDS011;7103;54.300;10.180;2023-05-07T06:29:02;0.20;;;0.20;;
14056;SDS011;7103;54.300;10.180;2023-05-07T06:31:29;0.20;;;0.20;;
14056;SDS011;7103;54.300;10.180;2023-05-07T06:33:59;0.30;;;0.30;;
14056;SDS011;7103;54.300;10.180;2023-05-07T06:36:28;0.30;;;0.30;;
14056;SDS011;7103;54.300;10.180;2023-05-07T06:38:55;0.20;;;0.20;;
14056;SDS011;7103;54.300;10.180;2023-05-07T06:41:22;0.20;;;0.20;;
14056;SDS011;7103;54.300;10.180;2023-05-07T06:43:49;0.20;;;0.20;;
14056;SDS011;7103;54.300;10.180;2023-05-07T06:46:16;0.20;;;0.20;;
14056;SDS011;7103;54.300;10.180;2023-05-07T06:48:43;0.30;;;0.30;;
14056;SDS011;7103;54.300;10.180;2023-05-07T06:51:10;0.30;;;0.30;;
14056;SDS011;7103;54.300;10.180;2023-05-07T06:53:37;0.20;;;0.20;;
14056;SDS011;7103;54.300;10.180;2023-05-07T06:56:04;0.20;;;0.20;;
14056;SDS011;7103;54.300;10.180;2023-05-07T06:58:31;0.30;;;0.30;;
14056;SDS011;7103;54.300;10.180;2023-05-07T07:00:58;0.20;;;0.20;;
14056;SDS011;7103;54.300;10.180;2023-05-07T07:03:25;0.20;;;0.20;;
14056;SDS011;7103;54.300;10.180;2023-05-07T07:05:53;0.20;;;0.20;;
14056;SDS011;7103;54.300;10.180;2023-05-07T07:08:20;0.20;;;0.20;;
14056;SDS011;7103;54.300;10.180;2023-05-07T07:10:48;0.20;;;0.20;;
14056;SDS011;7103;54.300;10.180;2023-05-07T07:13:15;0.30;;;0.30;;
14056;SDS011;7103;54.300;10.180;2023-05-07T07:15:42;0.20;;;0.20;;
14056;SDS011;7103;54.300;10.180;2023-05-07T07:18:10;0.20;;;0.20;;
14056;SDS011;7103;54.300;10.180;2023-05-07T07:20:37;0.30;;;0.30;;
14056;SDS011;7103;54.300;10.180;2023-05-07T07:23:04;0.20;;;0.20;;
14056;SDS011;7103;54.300;10.180;2023-05-07T07:25:31;0.30;;;0.30;;
14056;SDS011;7103;54.300;10.180;2023-05-07T07:27:58;0.20;;;0.20;;
14056;SDS011;7103;54.300;10.180;2023-05-07T07:30:25;0.30;;;0.30;;
14056;SDS011;7103;54.300;10.180;2023-05-07T07:32:52;0.30;;;0.30;;
14056;SDS011;7103;54.300;10.180;2023-05-07T07:35:19;0.20;;;0.20;;
14056;SDS011;7103;54.300;10.180;2023-05-07T07:37:47;0.27;;;0.27;;
14056;SDS011;7103;54.300;10.180;2023-05-07T07:40:16;0.30;;;0.30;;
14056;SDS011;7103;54.300;10.180;2023-05-07T07:42:43;0.30;;;0.30;;
14056;SDS011;7103;54.300;10.180;2023-05-07T07:45:10;0.30;;;0.30;;
14056;SDS011;7103;54.300;10.180;2023-05-07T07:47:38;0.20;;;0.20;;
14056;SDS011;7103;54.300;10.180;2023-05-07T07:50:06;0.20;;;0.20;;
14056;SDS011;7103;54.300;10.180;2023-05-07T07:52:34;0.30;;;0.30;;
14056;SDS011;7103;54.300;10.180;2023-05-07T07:55:01;0.30;;;0.30;;
14056;SDS011;7103;54.300;10.180;2023-05-07T07:57:29;0.30;;;0.30;;
14056;SDS011;7103;54.300;10.180;2023-05-07T07:59:56;0.23;;;0.23;;
14056;SDS011;7103;54.300;10.180;2023-05-07T08:02:23;0.20;;;0.20;;
14056;SDS011;7103;54.300;10.180;2023-05-07T08:04:50;0.30;;;0.30;;
14056;SDS011;7103;54.300;10.180;2023-05-07T08:07:17;0.30;;;0.30;;
14056;SDS011;7103;54.300;10.180;2023-05-07T08:09:46;0.30;;;0.30;;
14056;SDS011;7103;54.300;10.180;2023-05-07T08:12:13;0.20;;;0.20;;
14056;SDS011;7103;54.300;10.180;2023-05-07T08:14:40;0.20;;;0.20;;
14056;SDS011;7103;54.300;10.180;2023-05-07T08:17:07;0.30;;;0.30;;
14056;SDS011;7103;54.300;10.180;2023-05-07T08:19:36;0.30;;;0.30;;
14056;SDS011;7103;54.300;10.180;2023-05-07T08:22:03;0.30;;;0.30;;
14056;SDS011;7103;54.300;10.180;2023-05-07T08:24:31;0.30;;;0.30;;
14056;SDS011;7103;54.300;10.180;2023-05-07T08:26:58;0.20;;;0.20;;
14056;SDS011;7103;54.300;10.180;2023-05-07T08:29:25;0.30;;;0.30;;
14056;SDS011;7103;54.300;10.180;2023-05-07T08:31:52;0.20;;;0.20;;
14056;SDS011;7103;54.300;10.180;2023-05-07T08:34:19;0.30;;;0.30;;
14056;SDS011;7103;54.300;10.180;2023-05-07T08:36:47;0.20;;;0.20;;
14056;SDS011;7103;54.300;10.180;2023-05-07T08:39:15;0.30;;;0.30;;
14056;SDS011;7103;54.300;10.180;2023-05-07T08:41:46;0.20;;;0.20;;
14056;SDS011;7103;54.300;10.180;2023-05-07T08:44:17;0.20;;;0.20;;
14056;SDS011;7103;54.300;10.180;2023-05-07T08:46:48;0.20;;;0.20;;
14056;SDS011;7103;54.300;10.180;2023-05-07T08:49:18;0.30;;;0.30;;
14056;SDS011;7103;54.300;10.180;2023-05-07T08:51:45;0.30;;;0.30;;
14056;SDS011;7103;54.300;10.180;2023-05-07T08:54:12;0.20;;;0.20;;
14056;SDS011;7103;54.300;10.180;2023-05-07T08:56:43;0.30;;;0.30;;
14056;SDS011;7103;54.300;10.180;2023-05-07T08:59:10;0.30;;;0.30;;
14056;SDS011;7103;54.300;10.180;2023-05-07T09:01:37;0.30;;;0.30;;
14056;SDS011;7103;54.300;10.180;2023-05-07T09:04:05;0.30;;;0.30;;
14056;SDS011;7103;54.300;10.180;2023-05-07T09:06:33;0.30;;;0.30;;
14056;SDS011;7103;54.300;10.180;2023-05-07T09:09:01;0.20;;;0.20;;
14056;SDS011;7103;54.300;10.180;2023-05-07T09:11:31;0.30;;;0.30;;
14056;SDS011;7103;54.300;10.180;2023-05-07T09:13:58;0.30;;;0.30;;
14056;SDS011;7103;54.300;10.180;2023-05-07T09:16:29;0.30;;;0.30;;
14056;SDS011;7103;54.300;10.180;2023-05-07T09:18:58;0.20;;;0.20;;
14056;SDS011;7103;54.300;10.180;2023-05-07T09:21:26;0.30;;;0.30;;
14056;SDS011;7103;54.300;10.180;2023-05-07T09:23:54;0.30;;;0.30;;
14056;SDS011;7103;54.300;10.180;2023-05-07T09:26:22;0.30;;;0.30;;
14056;SDS011;7103;54.300;10.180;2023-05-07T09:28:50;0.23;;;0.23;;
14056;SDS011;7103;54.300;10.180;2023-05-07T09:31:18;0.30;;;0.30;;
14056;SDS011;7103;54.300;10.180;2023-05-07T09:33:47;0.30;;;0.30;;
14056;SDS011;7103;54.300;10.180;2023-05-07T09:36:14;0.20;;;0.20;;
14056;SDS011;7103;54.300;10.180;2023-05-07T09:38:42;0.30;;;0.30;;
14056;SDS011;7103;54.300;10.180;2023-05-07T09:41:10;0.33;;;0.33;;
14056;SDS011;7103;54.300;10.180;2023-05-07T09:43:39;0.30;;;0.30;;
14056;SDS011;7103;54.300;10.180;2023-05-07T09:46:08;0.30;;;0.30;;
14056;SDS011;7103;54.300;10.180;2023-05-07T09:48:42;0.30;;;0.30;;
14056;SDS011;7103;54.300;10.180;2023-05-07T09:53:47;0.30;;;0.30;;
14056;SDS011;7103;54.300;10.180;2023-05-07T09:56:17;0.30;;;0.30;;
14056;SDS011;7103;54.300;10.180;2023-05-07T09:58:44;0.30;;;0.30;;
14056;SDS011;7103;54.300;10.180;2023-05-07T10:01:13;0.30;;;0.30;;
14056;SDS011;7103;54.300;10.180;2023-05-07T10:03:41;0.30;;;0.30;;
14056;SDS011;7103;54.300;10.180;2023-05-07T10:06:10;0.30;;;0.30;;
14056;SDS011;7103;54.300;10.180;2023-05-07T10:08:38;0.30;;;0.30;;
14056;SDS011;7103;54.300;10.180;2023-05-07T10:11:06;0.20;;;0.20;;
14056;SDS011;7103;54.300;10.180;2023-05-07T10:13:33;0.30;;;0.30;;
14056;SDS011;7103;54.300;10.180;2023-05-07T10:16:04;0.30;;;0.30;;
14056;SDS011;7103;54.300;10.180;2023-05-07T10:18:32;0.30;;;0.30;;
14056;SDS011;7103;54.300;10.180;2023-05-07T10:21:21;0.33;;;0.33;;
14056;SDS011;7103;54.300;10.180;2023-05-07T10:23:50;0.30;;;0.30;;
14056;SDS011;7103;54.300;10.180;2023-05-07T10:26:23;0.30;;;0.30;;
14056;SDS011;7103;54.300;10.180;2023-05-07T10:28:54;0.40;;;0.40;;
14056;SDS011;7103;54.300;10.180;2023-05-07T10:34:16;0.30;;;0.30;;
14056;SDS011;7103;54.300;10.180;2023-05-07T10:36:47;0.30;;;0.30;;
14056;SDS011;7103;54.300;10.180;2023-05-07T10:39:16;0.30;;;0.30;;
14056;SDS011;7103;54.300;10.180;2023-05-07T10:41:45;0.33;;;0.33;;
14056;SDS011;7103;54.300;10.180;2023-05-07T10:44:24;0.30;;;0.30;;
14056;SDS011;7103;54.300;10.180;2023-05-07T10:47:06;0.30;;;0.30;;
14056;SDS011;7103;54.300;10.180;2023-05-07T10:52:20;0.27;;;0.27;;
14056;SDS011;7103;54.300;10.180;2023-05-07T10:57:43;0.40;;;0.40;;
14056;SDS011;7103;54.300;10.180;2023-05-07T11:03:04;0.30;;;0.30;;
14056;SDS011;7103;54.300;10.180;2023-05-07T11:05:33;0.40;;;0.40;;
14056;SDS011;7103;54.300;10.180;2023-05-07T11:08:04;0.37;;;0.37;;
14056;SDS011;7103;54.300;10.180;2023-05-07T11:18:50;0.37;;;0.37;;
14056;SDS011;7103;54.300;10.180;2023-05-07T11:21:33;0.30;;;0.30;;
14056;SDS011;7103;54.300;10.180;2023-05-07T11:24:02;0.30;;;0.30;;
14056;SDS011;7103;54.300;10.180;2023-05-07T11:26:31;0.40;;;0.40;;
14056;SDS011;7103;54.300;10.180;2023-05-07T11:29:15;0.30;;;0.30;;
14056;SDS011;7103;54.300;10.180;2023-05-07T11:31:51;0.30;;;0.30;;
14056;SDS011;7103;54.300;10.180;2023-05-07T11:34:22;0.30;;;0.30;;
14056;SDS011;7103;54.300;10.180;2023-05-07T11:36:51;0.30;;;0.30;;
14056;SDS011;7103;54.300;10.180;2023-05-07T11:39:27;0.40;;;0.40;;
14056;SDS011;7103;54.300;10.180;2023-05-07T11:41:58;0.30;;;0.30;;
14056;SDS011;7103;54.300;10.180;2023-05-07T11:44:39;0.40;;;0.40;;
14056;SDS011;7103;54.300;10.180;2023-05-07T11:47:07;0.30;;;0.30;;
14056;SDS011;7103;54.300;10.180;2023-05-07T11:49:34;0.30;;;0.30;;
14056;SDS011;7103;54.300;10.180;2023-05-07T11:52:02;0.30;;;0.30;;
14056;SDS011;7103;54.300;10.180;2023-05-07T11:54:35;0.30;;;0.30;;
14056;SDS011;7103;54.300;10.180;2023-05-07T11:57:03;0.40;;;0.40;;
14056;SDS011;7103;54.300;10.180;2023-05-07T11:59:37;0.30;;;0.30;;
14056;SDS011;7103;54.300;10.180;2023-05-07T12:02:06;0.30;;;0.30;;
14056;SDS011;7103;54.300;10.180;2023-05-07T12:04:34;0.30;;;0.30;;
14056;SDS011;7103;54.300;10.180;2023-05-07T12:07:01;0.30;;;0.30;;
14056;SDS011;7103;54.300;10.180;2023-05-07T12:09:28;0.30;;;0.30;;
14056;SDS011;7103;54.300;10.180;2023-05-07T12:11:55;0.40;;;0.40;;
14056;SDS011;7103;54.300;10.180;2023-05-07T12:14:26;0.40;;;0.40;;
14056;SDS011;7103;54.300;10.180;2023-05-07T12:16:55;0.40;;;0.40;;
14056;SDS011;7103;54.300;10.180;2023-05-07T12:19:22;0.40;;;0.40;;
14056;SDS011;7103;54.300;10.180;2023-05-07T12:21:49;0.40;;;0.40;;
14056;SDS011;7103;54.300;10.180;2023-05-07T12:24:17;0.40;;;0.40;;
14056;SDS011;7103;54.300;10.180;2023-05-07T12:26:47;0.30;;;0.30;;
14056;SDS011;7103;54.300;10.180;2023-05-07T12:29:14;0.40;;;0.40;;
14056;SDS011;7103;54.300;10.180;2023-05-07T12:31:42;0.30;;;0.30;;
14056;SDS011;7103;54.300;10.180;2023-05-07T12:34:12;0.30;;;0.30;;
14056;SDS011;7103;54.300;10.180;2023-05-07T12:36:39;0.30;;;0.30;;
14056;SDS011;7103;54.300;10.180;2023-05-07T12:39:07;0.30;;;0.30;;
14056;SDS011;7103;54.300;10.180;2023-05-07T12:41:53;0.30;;;0.30;;
14056;SDS011;7103;54.300;10.180;2023-05-07T12:44:22;0.30;;;0.30;;
14056;SDS011;7103;54.300;10.180;2023-05-07T12:46:50;0.30;;;0.30;;
14056;SDS011;7103;54.300;10.180;2023-05-07T12:49:18;0.30;;;0.30;;
14056;SDS011;7103;54.300;10.180;2023-05-07T12:51:49;0.40;;;0.40;;
14056;SDS011;7103;54.300;10.180;2023-05-07T12:54:35;0.40;;;0.40;;
14056;SDS011;7103;54.300;10.180;2023-05-07T12:57:04;0.30;;;0.30;;
14056;SDS011;7103;54.300;10.180;2023-05-07T12:59:36;0.30;;;0.30;;
14056;SDS011;7103;54.300;10.180;2023-05-07T13:02:05;0.40;;;0.40;;
14056;SDS011;7103;54.300;10.180;2023-05-07T13:04:32;0.40;;;0.40;;
14056;SDS011;7103;54.300;10.180;2023-05-07T13:07:00;0.30;;;0.30;;
14056;SDS011;7103;54.300;10.180;2023-05-07T13:09:27;0.40;;;0.40;;
14056;SDS011;7103;54.300;10.180;2023-05-07T13:11:58;0.40;;;0.40;;
14056;SDS011;7103;54.300;10.180;2023-05-07T13:14:28;0.30;;;0.30;;
14056;SDS011;7103;54.300;10.180;2023-05-07T13:16:55;0.30;;;0.30;;
14056;SDS011;7103;54.300;10.180;2023-05-07T13:19:22;0.40;;;0.40;;
14056;SDS011;7103;54.300;10.180;2023-05-07T13:21:49;0.40;;;0.40;;
14056;SDS011;7103;54.300;10.180;2023-05-07T13:24:16;0.40;;;0.40;;
14056;SDS011;7103;54.300;10.180;2023-05-07T13:26:43;0.40;;;0.40;;
14056;SDS011;7103;54.300;10.180;2023-05-07T13:29:11;0.40;;;0.40;;
14056;SDS011;7103;54.300;10.180;2023-05-07T13:31:38;0.30;;;0.30;;
14056;SDS011;7103;54.300;10.180;2023-05-07T13:34:09;0.30;;;0.30;;
14056;SDS011;7103;54.300;10.180;2023-05-07T13:36:36;0.30;;;0.30;;
14056;SDS011;7103;54.300;10.180;2023-05-07T13:39:06;0.40;;;0.40;;
14056;SDS011;7103;54.300;10.180;2023-05-07T13:41:33;0.40;;;0.40;;
14056;SDS011;7103;54.300;10.180;2023-05-07T13:44:00;0.40;;;0.40;;
14056;SDS011;7103;54.300;10.180;2023-05-07T13:46:27;0.40;;;0.40;;
14056;SDS011;7103;54.300;10.180;2023-05-07T13:48:54;0.30;;;0.30;;
14056;SDS011;7103;54.300;10.180;2023-05-07T13:51:21;0.40;;;0.40;;
14056;SDS011;7103;54.300;10.180;2023-05-07T13:53:48;0.40;;;0.40;;
14056;SDS011;7103;54.300;10.180;2023-05-07T13:56:15;0.30;;;0.30;;
14056;SDS011;7103;54.300;10.180;2023-05-07T13:58:42;0.30;;;0.30;;
14056;SDS011;7103;54.300;10.180;2023-05-07T14:01:24;0.30;;;0.30;;
14056;SDS011;7103;54.300;10.180;2023-05-07T14:03:51;0.30;;;0.30;;
14056;SDS011;7103;54.300;10.180;2023-05-07T14:06:18;0.40;;;0.40;;
14056;SDS011;7103;54.300;10.180;2023-05-07T14:08:45;0.30;;;0.30;;
14056;SDS011;7103;54.300;10.180;2023-05-07T14:11:12;0.40;;;0.40;;
14056;SDS011;7103;54.300;10.180;2023-05-07T14:13:39;0.40;;;0.40;;
14056;SDS011;7103;54.300;10.180;2023-05-07T14:16:06;0.30;;;0.30;;
14056;SDS011;7103;54.300;10.180;2023-05-07T14:18:33;0.40;;;0.40;;
14056;SDS011;7103;54.300;10.180;2023-05-07T14:21:01;0.30;;;0.30;;
14056;SDS011;7103;54.300;10.180;2023-05-07T14:23:28;0.40;;;0.40;;
14056;SDS011;7103;54.300;10.180;2023-05-07T14:25:55;0.20;;;0.20;;
14056;SDS011;7103;54.300;10.180;2023-05-07T14:28:23;0.30;;;0.30;;
14056;SDS011;7103;54.300;10.180;2023-05-07T14:30:50;0.40;;;0.40;;
14056;SDS011;7103;54.300;10.180;2023-05-07T14:33:17;0.40;;;0.40;;
14056;SDS011;7103;54.300;10.180;2023-05-07T14:35:44;0.40;;;0.40;;
14056;SDS011;7103;54.300;10.180;2023-05-07T14:38:15;0.40;;;0.40;;
14056;SDS011;7103;54.300;10.180;2023-05-07T14:40:42;0.30;;;0.30;;
14056;SDS011;7103;54.300;10.180;2023-05-07T14:43:09;0.40;;;0.40;;
14056;SDS011;7103;54.300;10.180;2023-05-07T14:45:36;0.30;;;0.30;;
14056;SDS011;7103;54.300;10.180;2023-05-07T14:48:03;0.30;;;0.30;;
14056;SDS011;7103;54.300;10.180;2023-05-07T14:50:30;0.20;;;0.20;;
14056;SDS011;7103;54.300;10.180;2023-05-07T14:52:57;0.30;;;0.30;;
14056;SDS011;7103;54.300;10.180;2023-05-07T14:55:24;0.40;;;0.40;;
14056;SDS011;7103;54.300;10.180;2023-05-07T14:57:51;0.40;;;0.40;;
14056;SDS011;7103;54.300;10.180;2023-05-07T15:00:18;0.40;;;0.40;;
14056;SDS011;7103;54.300;10.180;2023-05-07T15:02:45;0.40;;;0.40;;
14056;SDS011;7103;54.300;10.180;2023-05-07T15:05:12;0.40;;;0.40;;
14056;SDS011;7103;54.300;10.180;2023-05-07T15:07:40;0.40;;;0.40;;
14056;SDS011;7103;54.300;10.180;2023-05-07T15:10:08;0.30;;;0.30;;
14056;SDS011;7103;54.300;10.180;2023-05-07T15:12:35;0.20;;;0.20;;
14056;SDS011;7103;54.300;10.180;2023-05-07T15:15:02;0.30;;;0.30;;
14056;SDS011;7103;54.300;10.180;2023-05-07T15:17:30;0.40;;;0.40;;
14056;SDS011;7103;54.300;10.180;2023-05-07T15:19:57;0.30;;;0.30;;